createdAt,value
2023-01-03T00:01:29.641Z,74.80
2023-01-03T00:04:32.640Z,75.00
2023-01-03T00:07:35.700Z,75.00
2023-01-03T00:10:40.281Z,75.00
2023-01-03T00:13:45.804Z,75.00
2023-01-03T00:16:52.520Z,75.10
2023-01-03T00:19:55.948Z,75.20
2023-01-03T00:22:59.927Z,75.30
2023-01-03T00:26:11.252Z,75.30
2023-01-03T00:29:16.833Z,75.30
2023-01-03T00:32:20.322Z,75.30
2023-01-03T00:35:23.272Z,75.40
2023-01-03T00:38:26.611Z,75.70
2023-01-03T00:41:30.274Z,75.40
2023-01-03T00:44:34.910Z,75.40
2023-01-03T00:47:37.868Z,75.50
2023-01-03T00:50:40.906Z,75.50
2023-01-03T00:53:47.048Z,76.00
2023-01-03T00:56:51.990Z,75.40
2023-01-03T00:59:56.380Z,75.30
2023-01-03T01:02:59.607Z,75.30
2023-01-03T01:06:12.015Z,75.40
2023-01-03T01:09:17.919Z,75.40
2023-01-03T01:12:21.007Z,75.40
2023-01-03T01:15:25.346Z,75.30
2023-01-03T01:18:28.579Z,75.20
2023-01-03T01:21:32.779Z,75.40
2023-01-03T01:24:35.969Z,75.40
2023-01-03T01:27:38.926Z,75.40
2023-01-03T01:30:43.335Z,75.40
2023-01-03T01:33:46.777Z,75.40
2023-01-03T01:36:49.887Z,75.40
2023-01-03T01:39:52.795Z,75.40
2023-01-03T01:43:13.673Z,75.30
2023-01-03T01:46:24.680Z,75.40
2023-01-03T01:49:28.963Z,75.40
2023-01-03T01:52:37.426Z,75.30
2023-01-03T01:55:44.824Z,75.30
2023-01-03T01:58:52.249Z,75.30
2023-01-03T02:01:57.026Z,75.30
2023-01-03T02:05:03.320Z,75.40
2023-01-03T02:08:07.013Z,75.70
2023-01-03T02:11:29.342Z,75.40
2023-01-03T02:14:49.563Z,75.50
2023-01-03T02:18:10.993Z,75.20
2023-01-03T02:21:57.389Z,75.10
2023-01-03T02:25:44.864Z,75.00
2023-01-03T02:29:19.530Z,75.10
2023-01-03T02:32:34.903Z,74.80
2023-01-03T02:35:49.229Z,75.40
2023-01-03T02:38:58.825Z,75.40
2023-01-03T02:42:30.289Z,75.40
2023-01-03T02:45:53.665Z,75.10
2023-01-03T02:49:05.313Z,74.80
2023-01-03T02:52:14.234Z,75.00
2023-01-03T02:55:24.287Z,74.90
2023-01-03T02:58:35.075Z,75.00
2023-01-03T03:01:44.834Z,75.20
2023-01-03T03:04:57.742Z,75.40
2023-01-03T03:08:00.784Z,75.70
2023-01-03T03:11:21.598Z,75.90
2023-01-03T03:14:31.753Z,76.20
2023-01-03T03:17:34.929Z,75.80
2023-01-03T03:20:56.860Z,75.70
2023-01-03T03:24:26.437Z,75.60
2023-01-03T03:28:02.464Z,75.60
2023-01-03T03:31:13.476Z,75.50
2023-01-03T03:34:23.736Z,75.20
2023-01-03T03:37:30.613Z,75.20
2023-01-03T03:41:05.444Z,75.10
2023-01-03T03:44:40.937Z,75.00
2023-01-03T03:47:53.578Z,75.00
2023-01-03T03:51:03.782Z,75.20
2023-01-03T03:54:14.000Z,75.30
2023-01-03T03:57:28.806Z,75.20
2023-01-03T04:00:38.943Z,75.20
2023-01-03T04:03:46.067Z,75.00
2023-01-03T04:06:52.686Z,74.80
2023-01-03T04:09:57.108Z,74.50
2023-01-03T04:13:00.125Z,74.70
2023-01-03T04:16:03.731Z,75.00
2023-01-03T04:19:06.734Z,75.00
2023-01-03T04:22:09.844Z,74.90
2023-01-03T04:25:14.301Z,75.00
2023-01-03T04:28:17.620Z,74.80
2023-01-03T04:31:20.646Z,74.80
2023-01-03T04:34:23.899Z,74.50
2023-01-03T04:37:26.876Z,74.40
2023-01-03T04:40:31.234Z,74.20
2023-01-03T04:43:51.894Z,74.10
2023-01-03T04:46:54.921Z,73.70
2023-01-03T04:49:57.823Z,74.30
2023-01-03T04:53:01.069Z,74.40
2023-01-03T04:56:06.126Z,74.50
2023-01-03T04:59:09.120Z,74.70
2023-01-03T05:02:12.212Z,74.80
2023-01-03T05:05:15.776Z,74.90
2023-01-03T05:08:18.786Z,74.90
2023-01-03T05:11:23.621Z,74.90
2023-01-03T05:14:26.681Z,74.80
2023-01-03T05:17:29.612Z,74.80
2023-01-03T05:20:50.584Z,74.70
2023-01-03T05:24:11.386Z,74.30
2023-01-03T05:27:16.048Z,74.50
2023-01-03T05:30:19.245Z,74.20
2023-01-03T05:33:22.257Z,74.10
2023-01-03T05:36:25.200Z,74.20
2023-01-03T05:39:28.171Z,74.40
2023-01-03T05:42:32.502Z,75.00
2023-01-03T05:45:36.889Z,74.60
2023-01-03T05:48:39.832Z,74.70
2023-01-03T05:51:42.937Z,74.80
2023-01-03T05:54:45.876Z,74.90
2023-01-03T05:57:50.211Z,75.00
2023-01-03T06:00:53.318Z,75.00
2023-01-03T06:03:56.700Z,75.00
2023-01-03T06:06:59.680Z,75.00
2023-01-03T06:10:02.637Z,75.10
2023-01-03T06:13:07.046Z,75.10
2023-01-03T06:16:32.119Z,74.90
2023-01-03T06:19:35.201Z,74.80
2023-01-03T06:22:38.317Z,74.90
2023-01-03T06:25:41.255Z,74.80
2023-01-03T06:28:45.956Z,74.60
2023-01-03T06:31:49.032Z,74.50
2023-01-03T06:34:52.350Z,74.50
2023-01-03T06:37:55.726Z,74.40
2023-01-03T06:40:58.858Z,74.20
2023-01-03T06:44:03.250Z,74.20
2023-01-03T06:47:24.805Z,74.30
2023-01-03T06:50:45.583Z,74.20
2023-01-03T06:53:50.361Z,74.30
2023-01-03T06:56:55.095Z,74.20
2023-01-03T06:59:59.417Z,74.20
2023-01-03T07:03:07.210Z,74.10
2023-01-03T07:06:13.971Z,74.00
2023-01-03T07:09:17.184Z,74.20
2023-01-03T07:12:38.762Z,74.20
2023-01-03T07:15:46.752Z,74.10
2023-01-03T07:18:55.021Z,73.90
2023-01-03T07:21:58.617Z,74.10
2023-01-03T07:25:01.698Z,73.80
2023-01-03T07:28:08.093Z,73.80
2023-01-03T07:31:13.657Z,73.60
2023-01-03T07:34:16.688Z,73.20
2023-01-03T07:37:19.749Z,73.10
2023-01-03T07:40:22.663Z,72.90
2023-01-03T07:43:38.054Z,72.90
2023-01-03T07:46:42.517Z,72.90
2023-01-03T07:49:45.629Z,72.80
2023-01-03T07:52:48.621Z,72.90
2023-01-03T07:55:51.769Z,73.20
2023-01-03T07:58:54.834Z,73.30
2023-01-03T08:02:02.086Z,73.50
2023-01-03T08:05:06.309Z,73.60
2023-01-03T08:08:09.710Z,73.80
2023-01-03T08:11:32.597Z,73.80
2023-01-03T08:14:35.571Z,74.10
2023-01-03T08:17:39.923Z,73.40
2023-01-03T08:20:43.118Z,73.20
2023-01-03T08:23:46.047Z,72.50
2023-01-03T08:26:49.373Z,73.10
2023-01-03T08:29:52.342Z,73.10
2023-01-03T08:32:58.689Z,72.90
2023-01-03T08:36:06.740Z,72.90
2023-01-03T08:39:17.086Z,72.80
2023-01-03T08:42:23.434Z,72.90
2023-01-03T08:45:28.812Z,72.90
2023-01-03T08:48:33.278Z,73.10
2023-01-03T08:51:36.297Z,73.40
2023-01-03T08:54:40.121Z,73.50
2023-01-03T08:57:43.056Z,73.40
2023-01-03T09:00:46.680Z,73.00
2023-01-03T09:03:51.279Z,73.00
2023-01-03T09:06:54.367Z,73.40
2023-01-03T09:09:57.342Z,73.40
2023-01-03T09:13:02.308Z,73.50
2023-01-03T09:16:08.829Z,73.60
2023-01-03T09:19:13.162Z,73.90
2023-01-03T09:22:16.174Z,74.20
2023-01-03T09:25:21.124Z,74.40
2023-01-03T09:28:24.882Z,74.60
2023-01-03T09:31:29.372Z,74.60
2023-01-03T09:34:33.766Z,74.50
2023-01-03T09:37:36.780Z,74.20
2023-01-03T09:40:45.165Z,73.80
2023-01-03T09:43:52.145Z,73.40
2023-01-03T09:46:55.206Z,73.30
2023-01-03T09:53:45.941Z,73.50
2023-01-03T09:57:06.652Z,72.70
2023-01-03T10:00:35.848Z,72.50
2023-01-03T10:03:55.158Z,72.00
2023-01-03T10:07:15.516Z,71.40
2023-01-03T10:10:31.110Z,71.10
2023-01-03T10:13:59.341Z,71.30
2023-01-03T10:17:19.326Z,71.10
2023-01-03T10:20:37.113Z,71.30
2023-01-03T10:23:41.555Z,71.40
2023-01-03T10:26:44.759Z,71.70
2023-01-03T10:29:51.896Z,71.60
2023-01-03T10:33:19.991Z,71.60
2023-01-03T10:36:23.621Z,70.80
2023-01-03T10:39:32.927Z,71.30
2023-01-03T10:42:37.727Z,71.00
2023-01-03T10:45:54.281Z,71.20
2023-01-03T10:49:27.194Z,70.60
2023-01-03T10:52:35.212Z,71.20
2023-01-03T10:55:48.096Z,71.10
2023-01-03T10:59:11.295Z,71.10
2023-01-03T11:02:17.962Z,71.00
2023-01-03T11:05:25.478Z,70.90
2023-01-03T11:08:44.397Z,71.10
2023-01-03T11:12:00.171Z,70.60
2023-01-03T11:15:16.690Z,70.70
2023-01-03T11:18:21.601Z,71.40
2023-01-03T11:21:33.524Z,71.00
2023-01-03T11:25:03.407Z,70.80
2023-01-03T11:28:36.733Z,70.50
2023-01-03T11:31:52.513Z,70.80
2023-01-03T11:35:26.941Z,70.70
2023-01-03T11:38:51.300Z,70.40
2023-01-03T11:42:14.368Z,71.40
2023-01-03T11:45:58.658Z,70.40
2023-01-03T11:49:21.792Z,70.70
2023-01-03T11:52:35.042Z,70.60
2023-01-03T11:55:54.815Z,70.70
2023-01-03T11:59:43.409Z,70.60
2023-01-03T12:03:16.540Z,70.10
2023-01-03T12:06:31.619Z,70.20
2023-01-03T12:09:43.957Z,70.70
2023-01-03T12:13:11.556Z,70.60
2023-01-03T12:16:25.167Z,70.10
2023-01-03T12:19:42.915Z,70.50
2023-01-03T12:22:52.975Z,70.30
2023-01-03T12:26:00.645Z,70.50
2023-01-03T12:29:12.499Z,70.40
2023-01-03T12:32:22.197Z,70.20
2023-01-03T12:35:35.855Z,70.10
2023-01-03T12:38:46.290Z,69.90
2023-01-03T12:42:01.138Z,70.20
2023-01-03T12:45:34.187Z,69.70
2023-01-03T12:48:54.289Z,69.40
2023-01-03T12:51:59.324Z,69.40
2023-01-03T12:55:13.124Z,69.70
2023-01-03T12:58:39.999Z,69.50
2023-01-03T13:01:53.487Z,69.20
2023-01-03T13:05:11.144Z,69.50
2023-01-03T13:08:24.830Z,69.40
2023-01-03T13:11:33.301Z,69.50
2023-01-03T13:14:54.662Z,69.60
2023-01-03T13:18:33.221Z,69.00
2023-01-03T13:22:03.496Z,68.80
2023-01-03T13:25:39.290Z,68.60
2023-01-03T13:28:42.350Z,68.30
2023-01-03T13:31:46.222Z,69.50
2023-01-03T13:35:32.040Z,68.80
2023-01-03T13:38:36.260Z,68.00
2023-01-03T13:41:41.075Z,68.70
2023-01-03T13:44:43.969Z,68.00
2023-01-03T13:47:49.476Z,68.60
2023-01-03T13:51:35.895Z,68.80
2023-01-03T13:54:59.083Z,68.40
2023-01-03T13:58:05.188Z,68.50
2023-01-03T14:01:29.684Z,68.90
2023-01-03T14:05:12.589Z,69.20
2023-01-03T14:08:37.445Z,68.70
2023-01-03T14:12:10.897Z,69.10
2023-01-03T14:15:25.307Z,68.90
2023-01-03T14:18:32.056Z,69.20
2023-01-03T14:21:46.071Z,69.80
2023-01-03T14:24:52.352Z,69.10
2023-01-03T14:27:56.155Z,69.30
2023-01-03T14:31:05.858Z,69.30
2023-01-03T14:34:31.546Z,69.50
2023-01-03T14:37:35.026Z,69.20
2023-01-03T14:40:38.623Z,69.30
2023-01-03T14:43:41.563Z,69.70
2023-01-03T14:46:55.837Z,69.50
2023-01-03T14:49:59.001Z,69.50
2023-01-03T14:53:03.892Z,69.50
2023-01-03T14:56:07.694Z,69.50
2023-01-03T14:59:10.933Z,69.50
2023-01-03T15:02:15.942Z,69.60
2023-01-03T15:05:31.856Z,69.90
2023-01-03T15:08:43.567Z,70.20
2023-01-03T15:12:00.257Z,69.80
2023-01-03T15:15:17.510Z,69.90
2023-01-03T15:18:26.264Z,70.20
2023-01-03T15:21:31.213Z,70.10
2023-01-03T15:24:43.370Z,70.10
2023-01-03T15:27:49.346Z,70.20
2023-01-03T15:32:21.907Z,70.30
2023-01-03T15:35:34.204Z,70.40
2023-01-03T15:38:39.894Z,70.30
2023-01-03T15:42:34.419Z,70.50
2023-01-03T15:45:28.101Z,70.50
2023-01-03T15:48:36.031Z,70.00
2023-01-03T15:51:39.136Z,71.00
2023-01-03T15:54:43.275Z,70.50
2023-01-03T15:57:51.062Z,70.60
2023-01-03T16:00:54.660Z,71.80
2023-01-03T16:03:59.067Z,70.60
2023-01-03T16:07:02.083Z,70.70
2023-01-03T16:10:05.831Z,70.90
2023-01-03T16:13:11.052Z,70.50
2023-01-03T16:16:20.126Z,71.00
2023-01-03T16:19:28.006Z,70.30
2023-01-03T16:25:38.652Z,71.40
2023-01-03T16:28:41.676Z,71.20
2023-01-03T16:31:46.827Z,71.60
2023-01-03T16:34:52.007Z,72.40
2023-01-03T16:50:18.789Z,71.50
2023-01-03T16:53:33.263Z,71.30
2023-01-03T16:56:36.432Z,72.20
2023-01-03T17:02:43.056Z,71.80
2023-01-03T17:05:48.366Z,73.00
2023-01-03T17:11:55.212Z,73.00
2023-01-03T17:24:19.199Z,72.80
2023-01-03T17:27:32.013Z,73.20
2023-01-03T17:36:44.594Z,72.20
2023-01-03T17:39:53.654Z,71.40
2023-01-03T17:42:58.805Z,73.30
2023-01-03T17:46:23.739Z,74.20
2023-01-03T17:49:27.062Z,73.60
2023-01-03T17:52:35.736Z,73.20
2023-01-03T17:55:39.789Z,72.90
2023-01-03T17:58:43.379Z,74.40
2023-01-03T18:01:47.300Z,74.20
2023-01-03T18:08:22.643Z,75.10
2023-01-03T18:11:28.111Z,74.30
2023-01-03T18:14:31.267Z,74.20
2023-01-03T18:17:35.716Z,74.30
2023-01-03T18:26:52.746Z,72.80
2023-01-03T18:29:55.784Z,74.20
2023-01-03T18:32:58.713Z,74.00
2023-01-03T18:36:02.124Z,74.50
2023-01-03T18:39:13.061Z,74.50
2023-01-03T18:42:34.093Z,74.60
2023-01-03T18:45:38.135Z,75.00
2023-01-03T18:48:41.125Z,74.50
2023-01-03T18:51:44.831Z,74.40
2023-01-03T18:57:54.145Z,74.70
2023-01-03T19:25:48.624Z,73.40
2023-01-03T19:44:16.874Z,73.90
2023-01-03T19:47:20.929Z,75.00
2023-01-03T21:23:24.806Z,76.70
2023-01-03T22:07:13.654Z,75.50
2023-01-03T22:10:19.733Z,76.20
2023-01-03T22:13:22.754Z,76.30
2023-01-03T22:16:27.789Z,76.60
2023-01-03T23:24:21.077Z,76.00
